Time;durP1;ratioP1;P1;durP2;ratioP2;P2;SDS_P1;SDS_P2;PMS_P1;PMS_P2;Temp;Humidity;BMP_temperature;BMP_pressure;BME280_temperature;BME280_humidity;BME280_pressure;Samples;Min_cycle;Max_cycle;Signal;HPM_P1;HPM_P2
2023/05/19 00:00:14;;;;;;;9.50;8.20;;;;;;;8.46;100.00;102485.63;5010302;28;20022;-65
2023/05/19 00:02:40;;;;;;;10.68;9.18;;;;;;;8.48;100.00;102485.75;5009054;28;20129;-65
2023/05/19 00:05:06;;;;;;;10.75;8.63;;;;;;;8.51;100.00;102485.94;5009959;28;20172;-65
2023/05/19 00:07:32;;;;;;;9.77;8.77;;;;;;;8.51;100.00;102486.84;5009351;28;20029;-65
2023/05/19 00:09:58;;;;;;;10.95;8.90;;;;;;;8.51;100.00;102492.00;5010086;28;20025;-65
2023/05/19 00:12:23;;;;;;;10.52;8.25;;;;;;;8.50;100.00;102485.06;5009920;28;20432;-65
2023/05/19 00:14:49;;;;;;;11.77;9.52;;;;;;;8.48;100.00;102480.56;5009618;28;20043;-64
2023/05/19 00:17:15;;;;;;;14.20;9.25;;;;;;;8.47;100.00;102483.97;5009853;28;20060;-65
2023/05/19 00:19:41;;;;;;;9.73;8.43;;;;;;;8.43;100.00;102475.09;5010119;28;20076;-64
2023/05/19 00:22:06;;;;;;;12.32;8.75;;;;;;;8.41;100.00;102480.19;5009484;28;20433;-64
2023/05/19 00:24:32;;;;;;;11.25;8.20;;;;;;;8.40;100.00;102473.19;5009341;28;20541;-65
2023/05/19 00:26:57;;;;;;;12.88;9.68;;;;;;;8.39;100.00;102475.69;5009774;28;20022;-64
2023/05/19 00:29:22;;;;;;;12.95;8.30;;;;;;;8.37;100.00;102478.16;5010332;28;20025;-64
2023/05/19 00:31:48;;;;;;;11.52;8.88;;;;;;;8.38;100.00;102459.28;5009457;28;20014;-65
2023/05/19 00:34:13;;;;;;;10.32;7.95;;;;;;;8.41;100.00;102468.94;5009287;28;20228;-65
2023/05/19 00:36:38;;;;;;;11.95;7.43;;;;;;;8.41;100.00;102464.69;5008585;28;20026;-65
2023/05/19 00:39:03;;;;;;;11.90;7.95;;;;;;;8.41;100.00;102464.69;5009615;28;20509;-65
2023/05/19 00:41:29;;;;;;;11.63;8.30;;;;;;;8.40;100.00;102457.69;5009516;28;20520;-65
2023/05/19 00:43:54;;;;;;;10.15;7.43;;;;;;;8.39;100.00;102455.94;5009402;28;20018;-65
2023/05/19 00:46:19;;;;;;;8.85;7.90;;;;;;;8.40;100.00;102452.53;5008908;28;20065;-65
2023/05/19 00:48:45;;;;;;;12.40;8.00;;;;;;;8.40;100.00;102455.13;5009933;28;20640;-65
2023/05/19 00:51:13;;;;;;;9.35;7.65;;;;;;;8.41;100.00;102449.19;5009256;28;20155;-65
2023/05/19 00:53:39;;;;;;;8.82;7.40;;;;;;;8.39;100.00;102455.94;5009251;28;20053;-65
2023/05/19 00:56:04;;;;;;;9.05;7.68;;;;;;;8.36;100.00;102450.56;5008508;28;20466;-64
2023/05/19 00:58:31;;;;;;;10.48;7.35;;;;;;;8.34;100.00;102453.81;5008959;28;20029;-65
2023/05/19 01:01:02;;;;;;;10.50;7.68;;;;;;;8.32;100.00;102458.88;4991059;28;20490;-65
2023/05/19 01:03:29;;;;;;;10.18;8.00;;;;;;;8.29;100.00;102462.16;5009651;28;20176;-64
2023/05/19 01:05:55;;;;;;;9.00;7.88;;;;;;;8.25;100.00;102454.09;5008737;28;20092;-65
2023/05/19 01:08:20;;;;;;;10.05;7.20;;;;;;;8.24;100.00;102454.91;5008811;28;20026;-64
2023/05/19 01:10:46;;;;;;;9.60;7.05;;;;;;;8.16;100.00;102462.13;5008674;28;20025;-64
2023/05/19 01:13:11;;;;;;;10.40;7.30;;;;;;;8.12;100.00;102457.53;5008729;28;20044;-65
2023/05/19 01:15:59;;;;;;;10.90;8.15;;;;;;;8.11;100.00;102461.78;5008658;28;20026;-64
2023/05/19 01:18:48;;;;;;;12.30;7.50;;;;;;;8.10;100.00;102454.84;5007868;28;20040;-65
2023/05/19 01:21:35;;;;;;;9.75;7.68;;;;;;;8.09;100.00;102454.75;5008953;28;20491;-64
2023/05/19 01:24:07;;;;;;;7.95;7.15;;;;;;;8.06;100.00;102455.41;4980830;28;20143;-65
2023/05/19 01:26:50;;;;;;;15.10;7.63;;;;;;;8.02;100.00;102458.59;5008241;28;20034;-64
2023/05/19 01:29:45;;;;;;;10.88;8.10;;;;;;;7.99;100.00;102459.28;5008577;28;20042;-65
2023/05/19 01:32:10;;;;;;;9.55;7.32;;;;;;;7.98;100.00;102451.44;4989394;28;20091;-64
2023/05/19 01:34:41;;;;;;;8.68;7.18;;;;;;;7.97;100.00;102459.97;5008732;28;20420;-64
2023/05/19 01:37:06;;;;;;;8.33;7.43;;;;;;;7.97;100.00;102454.81;5008921;28;20112;-64
2023/05/19 01:39:32;;;;;;;10.85;7.38;;;;;;;7.93;100.00;102454.56;5008203;28;20375;-64
2023/05/19 01:41:59;;;;;;;9.30;7.38;;;;;;;7.91;100.00;102460.44;5008202;28;20026;-65
2023/05/19 01:44:24;;;;;;;12.02;7.15;;;;;;;7.91;100.00;102455.28;5007863;28;20060;-64
2023/05/19 01:46:50;;;;;;;9.23;7.78;;;;;;;7.87;100.00;102459.34;5008206;28;20264;-64
2023/05/19 01:49:16;;;;;;;9.38;7.32;;;;;;;7.87;100.00;102454.16;5008120;28;20025;-64
2023/05/19 01:51:42;;;;;;;10.85;7.35;;;;;;;7.87;100.00;102450.69;5008061;28;20049;-65
2023/05/19 01:54:07;;;;;;;8.52;7.38;;;;;;;7.85;100.00;102444.50;5007679;28;20029;-64
2023/05/19 01:56:44;;;;;;;8.88;7.18;;;;;;;7.87;100.00;102449.00;5008468;28;20478;-65
2023/05/19 01:59:22;;;;;;;10.80;7.43;;;;;;;7.85;100.00;102437.69;5007817;28;20096;-65
2023/05/19 02:01:53;;;;;;;10.43;7.72;;;;;;;7.82;100.00;102440.06;5008028;28;20030;-64
2023/05/19 02:04:34;;;;;;;10.82;7.10;;;;;;;7.81;100.00;102439.16;5007743;28;20406;-64
2023/05/19 02:07:04;;;;;;;;;;;;;;;7.79;100.00;102434.66;5008308;28;20026;-64
2023/05/19 02:09:51;;;;;;;8.82;7.07;;;;;;;7.78;100.00;102430.28;5007787;28;20316;-65
2023/05/19 02:12:27;;;;;;;10.40;7.97;;;;;;;7.76;100.00;102444.78;5007688;28;20054;-64
2023/05/19 02:15:04;;;;;;;11.07;7.93;;;;;;;7.73;100.00;102439.41;5007540;28;20052;-64
2023/05/19 02:17:35;;;;;;;10.18;6.97;;;;;;;7.71;100.00;102436.72;4995468;28;20028;-65
2023/05/19 02:20:01;;;;;;;9.45;7.50;;;;;;;7.69;100.00;102439.22;5007682;28;20417;-64
2023/05/19 02:22:26;;;;;;;10.93;7.97;;;;;;;7.67;100.00;102434.72;5008089;28;20469;-64
2023/05/19 02:24:51;;;;;;;13.20;8.13;;;;;;;7.65;100.00;102434.59;5007350;28;20289;-64
2023/05/19 02:27:17;;;;;;;11.63;7.35;;;;;;;7.64;100.00;102430.25;5007544;28;20545;-64
2023/05/19 02:29:43;;;;;;;13.00;7.38;;;;;;;7.64;100.00;102434.50;5007416;28;20068;-65
2023/05/19 02:32:08;;;;;;;10.30;7.80;;;;;;;7.62;100.00;102431.81;5007486;28;20060;-64
2023/05/19 02:34:33;;;;;;;9.85;7.75;;;;;;;7.62;100.00;102436.06;5007423;28;20080;-65
2023/05/19 02:36:58;;;;;;;11.30;7.72;;;;;;;7.60;100.00;102429.91;5007209;28;20034;-65
2023/05/19 02:39:25;;;;;;;14.35;7.47;;;;;;;7.58;100.00;102419.50;5007501;28;20503;-64
2023/05/19 02:41:50;;;;;;;10.32;7.43;;;;;;;7.55;100.00;102420.19;5007316;28;20029;-64
2023/05/19 02:44:15;;;;;;;12.32;7.82;;;;;;;7.54;100.00;102423.53;5007056;28;20401;-65
2023/05/19 02:46:41;;;;;;;13.10;7.97;;;;;;;7.50;100.00;102423.22;5007282;28;20048;-64
2023/05/19 02:49:06;;;;;;;12.65;8.00;;;;;;;7.48;100.00;102427.38;5007481;28;20100;-64
2023/05/19 02:51:31;;;;;;;9.43;8.30;;;;;;;7.46;100.00;102424.69;5007133;28;20025;-64
2023/05/19 02:53:56;;;;;;;12.32;8.38;;;;;;;7.44;100.00;102421.09;5006806;28;20041;-65
2023/05/19 02:56:22;;;;;;;13.05;8.38;;;;;;;7.43;100.00;102425.38;5007486;28;20373;-65
2023/05/19 02:58:47;;;;;;;10.88;7.70;;;;;;;7.41;100.00;102421.78;4989642;28;20084;-64
2023/05/19 03:01:12;;;;;;;11.93;8.13;;;;;;;7.40;100.00;102420.00;5007724;28;20029;-64
2023/05/19 03:03:38;;;;;;;10.32;7.88;;;;;;;7.41;100.00;102414.03;5007215;28;20520;-64
2023/05/19 03:06:03;;;;;;;11.15;7.43;;;;;;;7.39;100.00;102415.63;5007129;28;20022;-64
2023/05/19 03:08:29;;;;;;;10.15;7.90;;;;;;;7.35;100.00;102413.63;5007646;28;20581;-64
2023/05/19 03:10:54;;;;;;;10.80;7.80;;;;;;;7.34;100.00;102419.53;5007700;28;20461;-64
2023/05/19 03:13:19;;;;;;;11.18;7.03;;;;;;;7.38;100.00;102415.50;5007514;28;20466;-64
2023/05/19 03:15:45;;;;;;;8.73;7.68;;;;;;;7.35;100.00;102411.03;5006774;28;20025;-64
2023/05/19 03:18:12;;;;;;;11.43;7.38;;;;;;;7.32;100.00;102413.41;5007076;28;20103;-64
2023/05/19 03:20:38;;;;;;;11.25;7.68;;;;;;;7.30;100.00;102410.69;5006490;28;20080;-64
2023/05/19 03:23:03;;;;;;;10.55;7.43;;;;;;;7.30;100.00;102417.56;5006904;28;20037;-65
2023/05/19 03:25:29;;;;;;;11.15;8.18;;;;;;;7.27;100.00;102415.66;5006808;28;20071;-64
2023/05/19 03:27:55;;;;;;;8.57;7.35;;;;;;;7.28;100.00;102426.88;5006746;28;20128;-64
2023/05/19 03:30:21;;;;;;;10.90;7.28;;;;;;;7.27;100.00;102422.47;5007202;28;20316;-64
2023/05/19 03:32:46;;;;;;;9.00;7.38;;;;;;;7.26;100.00;102425.84;5005718;28;20097;-64
2023/05/19 03:35:11;;;;;;;11.38;8.02;;;;;;;7.23;100.00;102423.97;5005340;28;20462;-64
2023/05/19 03:37:36;;;;;;;10.40;7.32;;;;;;;7.19;100.00;102430.59;5005343;28;20084;-64
2023/05/19 03:40:04;;;;;;;11.65;8.07;;;;;;;7.16;100.00;102430.34;5003901;28;20359;-64
2023/05/19 03:42:29;;;;;;;9.07;7.75;;;;;;;7.15;100.00;102431.16;5007782;28;20030;-64
2023/05/19 03:44:54;;;;;;;9.88;7.95;;;;;;;7.12;100.00;102433.50;5007848;28;20017;-64
2023/05/19 03:47:19;;;;;;;11.63;7.97;;;;;;;7.10;100.00;102435.09;5009902;28;20107;-64
2023/05/19 03:49:45;;;;;;;11.88;7.47;;;;;;;7.05;100.00;102436.44;5010019;28;20025;-64
2023/05/19 03:52:11;;;;;;;10.85;8.00;;;;;;;7.03;100.00;102438.91;5010662;28;20053;-64
2023/05/19 03:54:38;;;;;;;10.90;7.95;;;;;;;7.02;100.00;102441.34;4992549;28;20022;-66
2023/05/19 03:57:04;;;;;;;12.77;8.00;;;;;;;7.00;100.00;102443.81;5010938;28;20029;-66
2023/05/19 03:59:30;;;;;;;12.57;8.35;;;;;;;6.97;100.00;102449.66;5010243;28;20025;-65
2023/05/19 04:01:56;;;;;;;12.30;9.05;;;;;;;6.96;100.00;102437.53;5010046;28;20583;-66
2023/05/19 04:04:21;;;;;;;9.50;8.02;;;;;;;6.94;100.00;102438.22;5010011;28;20030;-66
2023/05/19 04:06:47;;;;;;;11.07;8.73;;;;;;;6.93;100.00;102442.47;5010241;28;20069;-65
2023/05/19 04:09:14;;;;;;;12.93;9.50;;;;;;;6.90;100.00;102436.22;5010428;28;20071;-66
2023/05/19 04:11:40;;;;;;;9.63;8.50;;;;;;;6.89;100.00;102434.44;5010187;28;20036;-65
2023/05/19 04:14:06;;;;;;;11.88;8.70;;;;;;;6.90;100.00;102434.53;5009415;28;20072;-66
2023/05/19 04:16:32;;;;;;;10.07;7.70;;;;;;;6.89;100.00;102432.72;5009966;28;20066;-66
2023/05/19 04:18:57;;;;;;;13.52;8.95;;;;;;;6.89;100.00;102434.44;5009968;28;20280;-66
2023/05/19 04:21:22;;;;;;;10.73;8.75;;;;;;;6.92;100.00;102432.97;5009324;28;20828;-66
2023/05/19 04:23:48;;;;;;;12.65;9.15;;;;;;;6.94;100.00;102439.09;5009418;28;20030;-65
2023/05/19 04:26:16;;;;;;;11.95;8.35;;;;;;;6.94;100.00;102436.53;5009916;28;20077;-66
2023/05/19 04:28:43;;;;;;;10.32;8.70;;;;;;;6.99;100.00;102435.97;5009753;28;20034;-66
2023/05/19 04:31:11;;;;;;;10.15;8.98;;;;;;;6.99;100.00;102435.97;5009648;28;20030;-66
2023/05/19 04:33:37;;;;;;;11.35;9.02;;;;;;;7.01;100.00;102432.75;5008830;28;20077;-66
2023/05/19 04:36:07;;;;;;;12.75;9.20;;;;;;;7.04;100.00;102432.03;5009476;28;20034;-66
2023/05/19 04:38:36;;;;;;;13.25;9.63;;;;;;;7.08;100.00;102437.56;4992639;28;20182;-65
2023/05/19 04:41:02;;;;;;;13.60;10.05;;;;;;;7.08;100.00;102436.66;5009523;28;20061;-65
2023/05/19 04:43:27;;;;;;;11.02;9.25;;;;;;;7.09;100.00;102441.91;5009244;28;20040;-65
2023/05/19 04:45:53;;;;;;;12.98;8.80;;;;;;;7.13;100.00;102440.44;5009278;28;20481;-65
2023/05/19 04:48:20;;;;;;;13.02;9.80;;;;;;;7.17;100.00;102436.41;5009831;28;20029;-65
2023/05/19 04:50:47;;;;;;;15.48;10.02;;;;;;;7.17;100.00;102436.41;5008866;28;20029;-65
2023/05/19 04:53:13;;;;;;;9.93;8.93;;;;;;;7.19;100.00;102433.16;4997471;28;20058;-66
2023/05/19 04:55:38;;;;;;;11.35;9.57;;;;;;;7.21;100.00;102438.44;4991357;28;20034;-65
2023/05/19 04:58:03;;;;;;;15.48;10.50;;;;;;;7.25;100.00;102434.41;5009404;28;20060;-65
2023/05/19 05:00:29;;;;;;;10.57;9.13;;;;;;;7.28;100.00;102439.75;5008876;28;20033;-65
2023/05/19 05:02:56;;;;;;;11.82;9.73;;;;;;;7.31;100.00;102434.81;5008948;28;20096;-65
2023/05/19 05:05:21;;;;;;;13.27;9.60;;;;;;;7.35;100.00;102434.25;5008746;28;20029;-65
2023/05/19 05:07:48;;;;;;;11.73;9.82;;;;;;;7.38;100.00;102431.88;5009000;28;20037;-65
2023/05/19 05:10:13;;;;;;;10.88;9.20;;;;;;;7.44;100.00;102432.34;5008614;28;20022;-65
2023/05/19 05:12:39;;;;;;;11.70;9.52;;;;;;;7.54;100.00;102435.53;5008412;28;20033;-65
2023/05/19 05:15:05;;;;;;;14.82;9.50;;;;;;;7.62;100.00;102441.25;5008110;28;20072;-65
2023/05/19 05:17:32;;;;;;;12.98;9.15;;;;;;;7.70;100.00;102442.66;5008716;28;20121;-65
2023/05/19 05:19:58;;;;;;;11.68;8.55;;;;;;;7.81;100.00;102444.31;5008497;28;20835;-66
2023/05/19 05:22:23;;;;;;;13.20;9.05;;;;;;;7.90;100.00;102443.13;5008456;28;20026;-65
2023/05/19 05:24:49;;;;;;;11.10;9.55;;;;;;;7.97;100.00;102440.19;5007955;28;20025;-65
2023/05/19 05:27:14;;;;;;;13.18;8.80;;;;;;;8.06;100.00;102439.94;5008595;28;20107;-65
2023/05/19 05:29:40;;;;;;;10.50;9.40;;;;;;;8.20;100.00;102442.56;5007919;28;20525;-66
2023/05/19 05:32:06;;;;;;;12.45;9.38;;;;;;;8.30;100.00;102444.97;5008510;28;20034;-66
2023/05/19 05:34:32;;;;;;;9.90;8.90;;;;;;;8.43;100.00;102450.94;5007905;28;20515;-65
2023/05/19 05:36:57;;;;;;;12.48;9.68;;;;;;;8.49;100.00;102446.22;5008329;28;20026;-65
2023/05/19 05:39:22;;;;;;;13.73;8.82;;;;;;;8.61;100.00;102457.41;5008401;28;20465;-65
2023/05/19 05:41:48;;;;;;;11.77;9.18;;;;;;;8.70;100.00;102451.94;5008400;28;20032;-65
2023/05/19 05:44:13;;;;;;;12.07;8.18;;;;;;;8.79;100.00;102456.81;5008033;28;20147;-65
2023/05/19 05:46:39;;;;;;;11.57;8.18;;;;;;;8.89;100.00;102451.44;5008025;28;20448;-65
2023/05/19 05:49:04;;;;;;;12.50;8.43;;;;;;;8.98;100.00;102455.41;5008222;28;20181;-66
2023/05/19 05:51:31;;;;;;;13.27;9.20;;;;;;;9.03;100.00;102440.19;5008442;28;20022;-66
2023/05/19 05:53:58;;;;;;;11.23;8.43;;;;;;;9.09;100.00;102446.66;5008031;28;20036;-66
2023/05/19 05:56:25;;;;;;;11.57;8.40;;;;;;;9.21;100.00;102443.06;5007973;28;20136;-66
2023/05/19 05:58:50;;;;;;;14.48;8.82;;;;;;;9.30;100.00;102443.63;5007908;28;20048;-66
2023/05/19 06:01:16;;;;;;;11.38;8.32;;;;;;;9.32;100.00;102442.03;5008471;28;20034;-66
2023/05/19 06:03:43;;;;;;;8.48;7.68;;;;;;;9.46;100.00;102442.00;5007735;28;20064;-65
2023/05/19 06:06:10;;;;;;;8.35;6.80;;;;;;;9.65;100.00;102444.03;5007263;28;20075;-66
2023/05/19 06:08:35;;;;;;;11.18;7.80;;;;;;;9.79;100.00;102452.66;5007813;28;20489;-65
2023/05/19 06:11:07;;;;;;;11.35;7.35;;;;;;;9.94;100.00;102452.69;5008012;28;20038;-65
2023/05/19 06:13:32;;;;;;;11.27;7.78;;;;;;;10.11;100.00;102459.69;5007532;28;20042;-65
2023/05/19 06:15:57;;;;;;;9.48;8.05;;;;;;;10.21;100.00;102456.84;5008014;28;20375;-66
2023/05/19 06:18:23;;;;;;;9.45;7.53;;;;;;;10.22;100.00;102458.63;5008494;28;20053;-65
2023/05/19 06:20:48;;;;;;;9.90;7.97;;;;;;;10.24;100.00;102462.19;5008144;28;20442;-66
2023/05/19 06:23:13;;;;;;;11.52;8.07;;;;;;;10.30;100.00;102461.69;5007496;28;20030;-66
2023/05/19 06:25:39;;;;;;;10.00;7.47;;;;;;;10.41;100.00;102457.13;5007971;28;20024;-66
2023/05/19 06:28:04;;;;;;;11.18;7.85;;;;;;;10.51;100.00;102455.97;5007321;28;20113;-65
2023/05/19 06:30:30;;;;;;;8.57;7.00;;;;;;;10.56;100.00;102458.03;5007337;28;20038;-65
2023/05/19 06:32:55;;;;;;;11.75;8.02;;;;;;;10.63;100.00;102466.19;5007198;28;20060;-66
2023/05/19 06:35:20;;;;;;;8.30;6.90;;;;;;;10.63;100.00;102461.88;5007719;28;20133;-66
2023/05/19 06:37:46;;;;;;;10.73;7.75;;;;;;;10.60;100.00;102461.72;5008115;28;20025;-66
2023/05/19 06:40:11;;;;;;;10.35;7.07;;;;;;;10.64;100.00;102462.78;5007431;28;20393;-66
2023/05/19 06:42:37;;;;;;;8.73;7.78;;;;;;;10.77;100.00;102460.09;5007549;28;20038;-65
2023/05/19 06:45:02;;;;;;;14.15;8.15;;;;;;;11.03;100.00;102463.25;5006641;28;20030;-66
2023/05/19 06:47:27;;;;;;;10.10;7.28;;;;;;;11.29;100.00;102461.25;5007667;28;20108;-65
2023/05/19 06:49:56;;;;;;;10.35;7.63;;;;;;;11.60;100.00;102453.31;5007524;28;20076;-65
2023/05/19 06:52:22;;;;;;;10.48;7.25;;;;;;;11.88;100.00;102458.28;5007035;28;20553;-66
2023/05/19 06:54:48;;;;;;;9.65;7.20;;;;;;;12.03;98.28;102449.50;5007634;28;20109;-66
2023/05/19 06:57:13;;;;;;;9.20;7.50;;;;;;;12.17;97.79;102444.16;5006721;28;20041;-65
2023/05/19 06:59:42;;;;;;;9.70;6.93;;;;;;;12.30;96.61;102461.25;5007214;28;20034;-66
2023/05/19 07:02:08;;;;;;;9.32;7.13;;;;;;;12.40;97.03;102463.50;5006796;28;20349;-66
2023/05/19 07:04:33;;;;;;;7.75;6.95;;;;;;;12.54;97.10;102461.59;4989480;28;20504;-66
2023/05/19 07:06:59;;;;;;;9.88;7.05;;;;;;;12.64;95.43;102456.84;5007150;28;20025;-66
2023/05/19 07:09:24;;;;;;;8.20;7.40;;;;;;;12.81;96.93;102455.06;5007744;28;20105;-66
2023/05/19 07:11:49;;;;;;;11.57;8.23;;;;;;;12.96;96.37;102447.13;5007423;28;20040;-66
2023/05/19 07:14:15;;;;;;;8.32;6.75;;;;;;;13.16;95.39;102457.59;5006977;28;20022;-66
2023/05/19 07:16:40;;;;;;;11.75;6.53;;;;;;;13.32;91.05;102449.69;5008474;28;20112;-66
2023/05/19 07:19:05;;;;;;;7.63;6.10;;;;;;;13.53;89.85;102453.22;5011379;28;20062;-66
2023/05/19 07:21:31;;;;;;;7.93;6.72;;;;;;;13.72;88.31;102454.06;5010759;28;20044;-66
2023/05/19 07:23:57;;;;;;;9.00;6.30;;;;;;;13.89;88.13;102455.69;5010928;28;20017;-66
2023/05/19 07:26:22;;;;;;;9.82;6.55;;;;;;;14.12;87.69;102454.94;5010195;28;20030;-66
2023/05/19 07:28:47;;;;;;;11.63;6.78;;;;;;;14.30;83.34;102460.03;5010487;28;20024;-66
2023/05/19 07:31:13;;;;;;;9.88;5.95;;;;;;;14.45;79.15;102461.47;5010987;28;20038;-66
2023/05/19 07:33:38;;;;;;;8.68;6.00;;;;;;;14.63;79.82;102458.75;5010715;28;20026;-66
2023/05/19 07:36:03;;;;;;;9.38;5.95;;;;;;;14.80;80.17;102451.63;5010711;28;20030;-66
2023/05/19 07:38:33;;;;;;;9.27;5.78;;;;;;;14.99;81.34;102452.38;5010639;28;20165;-66
2023/05/19 07:40:58;;;;;;;10.38;5.75;;;;;;;15.18;80.47;102453.09;5009938;28;20045;-66
2023/05/19 07:43:23;;;;;;;6.57;5.10;;;;;;;15.42;76.10;102447.00;5010759;28;20029;-66
2023/05/19 07:45:49;;;;;;;7.00;5.75;;;;;;;15.66;77.86;102456.59;5010549;28;20505;-66
2023/05/19 07:48:17;;;;;;;11.80;5.43;;;;;;;15.71;70.71;102450.72;4992598;28;20462;-66
2023/05/19 07:50:42;;;;;;;10.63;5.50;;;;;;;16.00;71.34;102446.50;5010243;28;20037;-66
2023/05/19 07:53:08;;;;;;;10.57;5.82;;;;;;;16.23;71.83;102449.00;5010502;28;20033;-66
2023/05/19 07:55:33;;;;;;;6.20;5.50;;;;;;;16.39;71.14;102442.56;4992374;28;20037;-66
2023/05/19 07:57:58;;;;;;;9.05;5.50;;;;;;;16.45;69.42;102440.19;5010181;28;20378;-66
2023/05/19 08:00:23;;;;;;;7.72;4.55;;;;;;;16.54;65.87;102450.94;5010461;28;20040;-66
2023/05/19 08:02:49;;;;;;;6.85;4.78;;;;;;;16.49;64.22;102442.06;5010009;28;20441;-66
2023/05/19 08:05:14;;;;;;;8.80;4.85;;;;;;;16.39;64.16;102439.94;5009498;28;20478;-66
2023/05/19 08:07:39;;;;;;;8.07;4.70;;;;;;;16.39;63.83;102451.31;5010464;28;20018;-66
2023/05/19 08:10:05;;;;;;;11.43;4.68;;;;;;;16.58;66.17;102441.47;5010355;28;20108;-66
2023/05/19 08:12:31;;;;;;;7.30;4.78;;;;;;;16.77;69.11;102439.44;5010618;28;20659;-66
2023/05/19 08:14:56;;;;;;;6.80;4.47;;;;;;;16.77;63.91;102442.03;5010392;28;20055;-66
2023/05/19 08:17:22;;;;;;;7.47;4.88;;;;;;;16.65;63.61;102432.09;5009866;28;20592;-66
2023/05/19 08:19:47;;;;;;;8.32;5.25;;;;;;;16.60;64.32;102436.28;5010490;28;20036;-66
2023/05/19 08:22:13;;;;;;;8.80;5.30;;;;;;;16.68;63.81;102435.69;5009855;28;20112;-66
2023/05/19 08:24:41;;;;;;;8.88;4.70;;;;;;;16.65;66.17;102426.84;5009971;28;20053;-66
2023/05/19 08:27:06;;;;;;;6.50;5.30;;;;;;;16.67;67.54;102430.41;5009338;28;20030;-66
2023/05/19 08:29:31;;;;;;;6.50;4.53;;;;;;;16.72;64.71;102417.47;5001733;28;20030;-66
2023/05/19 08:31:57;;;;;;;10.07;4.68;;;;;;;16.89;68.60;102421.47;5009196;28;20049;-66
2023/05/19 08:34:22;;;;;;;8.48;4.78;;;;;;;17.11;67.41;102418.66;5009844;28;20018;-66
2023/05/19 08:36:48;;;;;;;7.40;3.95;;;;;;;17.16;61.56;102415.34;5009582;28;20496;-66
2023/05/19 08:39:15;;;;;;;6.57;4.35;;;;;;;17.42;64.12;102416.94;5009104;28;20025;-66
2023/05/19 08:41:40;;;;;;;6.35;4.72;;;;;;;17.71;64.81;102414.25;5009559;28;20018;-66
2023/05/19 08:44:05;;;;;;;9.05;4.53;;;;;;;17.92;59.89;102413.03;5009523;28;20026;-66
2023/05/19 08:46:31;;;;;;;5.93;4.50;;;;;;;18.02;61.31;102408.03;5009547;28;20077;-65
2023/05/19 08:49:03;;;;;;;7.07;4.10;;;;;;;18.23;62.33;102398.13;5008969;28;20071;-66
2023/05/19 08:51:29;;;;;;;5.78;3.38;;;;;;;18.35;59.54;102392.28;5008888;28;20044;-66
2023/05/19 08:53:59;;;;;;;5.22;3.03;;;;;;;18.43;57.58;102397.75;4995711;28;20018;-66
2023/05/19 08:56:25;;;;;;;6.28;3.97;;;;;;;18.39;56.75;102393.25;5007496;28;20482;-66
2023/05/19 08:58:51;;;;;;;6.25;3.30;;;;;;;18.67;58.56;102388.63;5008581;28;20034;-65
2023/05/19 09:01:18;;;;;;;5.88;3.35;;;;;;;18.86;56.56;102383.81;5006238;28;20029;-66
2023/05/19 09:03:44;;;;;;;6.15;3.75;;;;;;;18.91;55.28;102386.53;5002400;28;20144;-66
2023/05/19 09:06:13;;;;;;;6.55;2.50;;;;;;;18.92;54.32;102389.22;4982984;28;20111;-66
2023/05/19 09:08:40;;;;;;;6.03;2.75;;;;;;;18.65;50.37;102387.75;5008913;28;20528;-66
2023/05/19 09:11:05;;;;;;;7.93;2.83;;;;;;;18.45;52.29;102377.66;5008961;28;20033;-66
2023/05/19 09:13:31;;;;;;;7.10;2.80;;;;;;;18.21;52.78;102376.22;5009250;28;20030;-65
2023/05/19 09:15:56;;;;;;;8.45;3.22;;;;;;;18.27;57.43;102383.38;5009712;28;20034;-66
2023/05/19 09:18:24;;;;;;;4.70;1.92;;;;;;;18.51;55.93;102370.78;5003209;28;20052;-66
2023/05/19 09:20:49;;;;;;;6.88;2.05;;;;;;;18.68;50.38;102379.94;5009456;28;20061;-66
2023/05/19 09:23:17;;;;;;;4.30;1.60;;;;;;;18.83;49.52;102368.88;5008817;28;20100;-66
2023/05/19 09:25:45;;;;;;;4.75;2.00;;;;;;;18.94;47.27;102370.84;5009722;28;20061;-66
2023/05/19 09:28:11;;;;;;;5.35;2.10;;;;;;;18.91;46.97;102361.16;5008997;28;20036;-66
2023/05/19 09:30:36;;;;;;;4.00;1.70;;;;;;;18.89;49.14;102362.88;5009464;28;20029;-66
2023/05/19 09:33:03;;;;;;;4.05;1.55;;;;;;;18.90;48.75;102359.41;5008921;28;20040;-66
2023/05/19 09:35:28;;;;;;;8.05;2.08;;;;;;;18.82;46.04;102360.97;5008472;28;20057;-66
2023/05/19 09:37:53;;;;;;;7.22;2.10;;;;;;;18.91;48.02;102358.53;5009028;28;20057;-66
2023/05/19 09:40:19;;;;;;;5.05;1.77;;;;;;;19.11;48.18;102365.06;5008841;28;20033;-66
2023/05/19 09:42:44;;;;;;;5.65;2.55;;;;;;;18.90;46.05;102359.41;5008691;28;20030;-66
2023/05/19 09:45:10;;;;;;;5.97;2.03;;;;;;;18.95;47.50;102357.75;5009475;28;20022;-66
2023/05/19 09:47:40;;;;;;;4.80;1.55;;;;;;;18.95;48.63;102359.50;5008712;28;20021;-66
2023/05/19 09:50:08;;;;;;;6.22;1.90;;;;;;;19.05;48.41;102361.44;5008592;28;20104;-66
2023/05/19 09:52:43;;;;;;;4.85;1.77;;;;;;;19.16;46.47;102360.81;5009225;28;20025;-66
2023/05/19 09:55:11;;;;;;;4.80;1.52;;;;;;;19.41;45.75;102362.19;5008609;28;20097;-66
2023/05/19 09:57:39;;;;;;;6.82;1.70;;;;;;;19.44;43.51;102362.25;5008835;28;20021;-66
2023/05/19 10:00:13;;;;;;;4.82;1.63;;;;;;;19.46;44.01;102366.66;5008472;28;20034;-66
2023/05/19 10:02:45;;;;;;;3.95;1.50;;;;;;;19.49;43.55;102364.97;5009122;28;20417;-66
2023/05/19 10:05:16;;;;;;;5.50;1.70;;;;;;;19.58;45.17;102369.50;5007304;28;20096;-66
2023/05/19 10:07:43;;;;;;;4.72;1.70;;;;;;;19.54;46.28;102367.66;5002689;28;20022;-66
2023/05/19 10:10:12;;;;;;;3.38;1.50;;;;;;;19.31;46.53;102360.25;5002736;28;20033;-66
2023/05/19 10:12:38;;;;;;;4.28;1.73;;;;;;;18.93;45.65;102363.81;5008912;28;20026;-66
2023/05/19 10:15:07;;;;;;;4.53;1.60;;;;;;;18.84;45.97;102364.50;5002689;28;20352;-66
2023/05/19 10:17:35;;;;;;;4.40;1.52;;;;;;;18.88;46.29;102358.47;5007776;28;20396;-66
2023/05/19 10:20:01;;;;;;;4.68;1.73;;;;;;;18.97;45.39;102349.91;5007769;28;20026;-66
2023/05/19 10:22:27;;;;;;;3.75;1.60;;;;;;;19.20;46.34;102358.28;5008480;28;20034;-66
2023/05/19 10:24:54;;;;;;;3.20;1.60;;;;;;;19.43;45.25;102365.72;5008322;28;20485;-66
2023/05/19 10:27:21;;;;;;;4.57;2.13;;;;;;;19.46;45.75;102349.16;5008122;28;20021;-66
2023/05/19 10:29:49;;;;;;;7.47;2.22;;;;;;;19.60;47.36;102362.53;5008407;28;20030;-66
2023/05/19 10:32:21;;;;;;;6.20;2.47;;;;;;;19.64;45.03;102353.88;5007127;28;20030;-67
2023/05/19 10:35:10;;;;;;;6.57;2.10;;;;;;;19.52;45.87;102344.00;5007659;28;20038;-66
2023/05/19 10:38:13;;;;;;;3.55;1.65;;;;;;;19.27;47.28;102337.38;5000261;28;20084;-66
2023/05/19 10:41:03;;;;;;;3.17;1.63;;;;;;;19.29;44.45;102339.19;5000553;28;20033;-66
2023/05/19 10:43:38;;;;;;;4.13;1.45;;;;;;;19.37;43.61;102339.34;5008573;28;20038;-66
2023/05/19 10:46:05;;;;;;;3.95;1.40;;;;;;;19.55;45.90;102328.25;5007485;28;20040;-66
2023/05/19 10:48:34;;;;;;;5.95;2.38;;;;;;;19.73;43.41;102333.84;5008005;28;20075;-66
2023/05/19 10:51:00;;;;;;;3.22;1.15;;;;;;;19.89;45.22;102332.34;5007444;28;20044;-66
2023/05/19 10:53:33;;;;;;;4.30;1.77;;;;;;;19.97;43.45;102332.50;5008065;28;20038;-66
2023/05/19 10:56:03;;;;;;;5.65;1.83;;;;;;;20.15;42.56;102324.91;5007513;28;20026;-67
2023/05/19 10:58:35;;;;;;;6.40;1.35;;;;;;;20.37;43.35;102335.75;4999292;28;20033;-66
2023/05/19 11:01:00;;;;;;;6.75;2.03;;;;;;;20.46;42.73;102329.75;5007411;28;20473;-66
2023/05/19 11:03:27;;;;;;;3.67;1.50;;;;;;;20.50;41.80;102334.19;4990408;28;20053;-66
2023/05/19 11:06:19;;;;;;;4.70;1.65;;;;;;;20.58;39.86;102329.00;5006967;28;20029;-66
2023/05/19 11:08:46;;;;;;;2.65;1.30;;;;;;;20.54;40.57;102337.75;5007721;28;20022;-66
2023/05/19 11:11:15;;;;;;;5.13;1.60;;;;;;;20.47;40.16;102330.63;5007671;28;20058;-66
2023/05/19 11:13:50;;;;;;;4.25;1.67;;;;;;;20.48;41.17;102332.41;5005652;28;20018;-66
2023/05/19 11:16:26;;;;;;;8.52;1.92;;;;;;;20.42;39.11;102337.59;5002168;28;20034;-67
2023/05/19 11:18:54;;;;;;;3.20;1.42;;;;;;;20.40;42.40;102330.53;5001055;28;20022;-67
2023/05/19 11:21:19;;;;;;;4.82;1.88;;;;;;;20.52;43.47;102334.22;5005828;28;20109;-67